Wetterdaten: Dienstag, 11.08.2015
Datum Zeit Temp. A. Feuchte A. Luftdruck Regen Wind Richtung Richtung Sonnenschein ET UV Solar Taupunkt Windchill Windben Empfang
11.08.2015 00:00 23,0 C 42 % 1012,6 hPa 0,0 l/m 1,8 km/h (1 Bft) O 100 0 min 0,000 mm 0,0 UV-I 0 W/m 9,4 C 23,0 C 4,0 km/h (1 Bft) 0,00 %
11.08.2015 00:05 22,9 C 42 % 1012,6 hPa 0,0 l/m 0,0 km/h (0 Bft) O-SO 102 0 min 0,000 mm 0,0 UV-I 0 W/m 9,3 C 22,9 C 0,0 km/h (0 Bft) 0,00 %
11.08.2015 00:10 22,7 C 42 % 1012,6 hPa 0,0 l/m 2,2 km/h (1 Bft) O-SO 108 0 min 0,000 mm 0,0 UV-I 0 W/m 9,1 C 22,7 C 4,0 km/h (1 Bft) 0,00 %
11.08.2015 00:15 22,6 C 42 % 1012,7 hPa 0,0 l/m 0,0 km/h (0 Bft) N-NO 28 0 min 0,000 mm 0,0 UV-I 0 W/m 9,0 C 22,6 C 0,0 km/h (0 Bft) 0,00 %
11.08.2015 00:20 22,6 C 42 % 1012,6 hPa 0,0 l/m 0,0 km/h (0 Bft) O 95 0 min 0,000 mm 0,0 UV-I 0 W/m 9,0 C 22,6 C 0,0 km/h (0 Bft) 0,00 %
11.08.2015 00:25 22,5 C 42 % 1012,7 hPa 0,0 l/m 0,0 km/h (0 Bft) NO 52 0 min 0,000 mm 0,0 UV-I 0 W/m 8,9 C 22,5 C 0,0 km/h (0 Bft) 0,00 %
11.08.2015 00:30 22,4 C 43 % 1012,5 hPa 0,0 l/m 1,8 km/h (1 Bft) O-NO 75 0 min 0,000 mm 0,0 UV-I 0 W/m 9,2 C 22,4 C 4,0 km/h (1 Bft) 0,00 %
11.08.2015 00:35 22,3 C 43 % 1012,6 hPa 0,0 l/m 1,8 km/h (1 Bft) O-SO 115 0 min 0,000 mm 0,0 UV-I 0 W/m 9,1 C 22,3 C 4,0 km/h (1 Bft) 0,00 %
11.08.2015 00:40 22,1 C 43 % 1012,5 hPa 0,0 l/m 0,0 km/h (0 Bft) SO 128 0 min 0,000 mm 0,0 UV-I 0 W/m 8,9 C 22,1 C 0,0 km/h (0 Bft) 0,00 %
11.08.2015 00:45 21,9 C 43 % 1012,5 hPa 0,0 l/m 1,8 km/h (1 Bft) O-SO 122 0 min 0,000 mm 0,0 UV-I 0 W/m 8,7 C 21,9 C 4,0 km/h (1 Bft) 0,00 %
11.08.2015 00:50 21,9 C 43 % 1012,5 hPa 0,0 l/m 0,0 km/h (0 Bft) O-SO 109 0 min 0,000 mm 0,0 UV-I 0 W/m 8,7 C 21,9 C 0,0 km/h (0 Bft) 0,00 %
11.08.2015 00:55 22,1 C 43 % 1012,6 hPa 0,0 l/m 0,0 km/h (0 Bft) N-NO 28 0 min 0,000 mm 0,0 UV-I 0 W/m 8,9 C 22,1 C 0,0 km/h (0 Bft) 0,00 %
11.08.2015 01:00 22,3 C 43 % 1012,5 hPa 0,0 l/m 0,7 km/h (0 Bft) O-SO 110 0 min 0,000 mm 0,0 UV-I 0 W/m 9,1 C 22,3 C 4,0 km/h (1 Bft) 0,00 %
11.08.2015 01:05 22,4 C 43 % 1012,5 hPa 0,0 l/m 3,2 km/h (1 Bft) O-SO 115 0 min 0,000 mm 0,0 UV-I 0 W/m 9,2 C 22,4 C 4,0 km/h (1 Bft) 0,00 %
11.08.2015 01:10 22,4 C 43 % 1012,5 hPa 0,0 l/m 0,4 km/h (0 Bft) O-SO 115 0 min 0,000 mm 0,0 UV-I 0 W/m 9,2 C 22,4 C 4,0 km/h (1 Bft) 0,00 %
11.08.2015 01:15 22,4 C 43 % 1012,6 hPa 0,0 l/m 3,2 km/h (1 Bft) O 98 0 min 0,000 mm 0,0 UV-I 0 W/m 9,2 C 22,4 C 4,0 km/h (1 Bft) 0,00 %
11.08.2015 01:20 22,3 C 42 % 1012,6 hPa 0,0 l/m 0,0 km/h (0 Bft) O-SO 121 0 min 0,000 mm 0,0 UV-I 0 W/m 8,8 C 22,3 C 0,0 km/h (0 Bft) 0,00 %
11.08.2015 01:25 22,4 C 43 % 1012,5 hPa 0,0 l/m 0,0 km/h (0 Bft) SO 130 0 min 0,000 mm 0,0 UV-I 0 W/m 9,2 C 22,4 C 0,0 km/h (0 Bft) 0,00 %
11.08.2015 01:30 22,5 C 43 % 1012,5 hPa 0,0 l/m 0,0 km/h (0 Bft) O-NO 62 0 min 0,000 mm 0,0 UV-I 0 W/m 9,3 C 22,5 C 0,0 km/h (0 Bft) 0,00 %
11.08.2015 01:35 22,5 C 42 % 1012,5 hPa 0,0 l/m 6,8 km/h (2 Bft) O 88 0 min 0,000 mm 0,0 UV-I 0 W/m 8,9 C 22,4 C 11,9 km/h (2 Bft) 0,00 %
11.08.2015 01:40 22,5 C 43 % 1012,5 hPa 0,0 l/m 2,2 km/h (1 Bft) NO 47 0 min 0,000 mm 0,0 UV-I 0 W/m 9,3 C 22,5 C 4,0 km/h (1 Bft) 0,00 %
11.08.2015 01:45 22,4 C 43 % 1012,5 hPa 0,0 l/m 0,0 km/h (0 Bft) N-NW 343 0 min 0,000 mm 0,0 UV-I 0 W/m 9,2 C 22,4 C 0,0 km/h (0 Bft) 0,00 %
11.08.2015 01:50 22,4 C 43 % 1012,4 hPa 0,0 l/m 5,4 km/h (1 Bft) O-SO 118 0 min 0,000 mm 0,0 UV-I 0 W/m 9,2 C 22,4 C 7,9 km/h (2 Bft) 0,00 %
11.08.2015 01:55 22,3 C 43 % 1012,5 hPa 0,0 l/m 0,0 km/h (0 Bft) N-NW 333 0 min 0,000 mm 0,0 UV-I 0 W/m 9,1 C 22,3 C 0,0 km/h (0 Bft) 0,00 %
11.08.2015 02:00 22,3 C 43 % 1012,5 hPa 0,0 l/m 1,8 km/h (1 Bft) O 90 0 min 0,000 mm 0,0 UV-I 0 W/m 9,1 C 22,3 C 4,0 km/h (1 Bft) 0,00 %
11.08.2015 02:05 22,1 C 43 % 1012,5 hPa 0,0 l/m 0,0 km/h (0 Bft) NO 36 0 min 0,000 mm 0,0 UV-I 0 W/m 8,9 C 22,1 C 0,0 km/h (0 Bft) 0,00 %
11.08.2015 02:10 21,9 C 45 % 1012,6 hPa 0,0 l/m 2,9 km/h (1 Bft) SO 133 0 min 0,000 mm 0,0 UV-I 0 W/m 9,4 C 21,9 C 4,0 km/h (1 Bft) 0,00 %
11.08.2015 02:15 21,5 C 45 % 1012,3 hPa 0,0 l/m 0,0 km/h (0 Bft) N 354 0 min 0,000 mm 0,0 UV-I 0 W/m 9,1 C 21,5 C 0,0 km/h (0 Bft) 0,00 %
11.08.2015 02:20 21,3 C 45 % 1012,5 hPa 0,0 l/m 0,7 km/h (0 Bft) N-NO 23 0 min 0,000 mm 0,0 UV-I 0 W/m 8,9 C 21,3 C 4,0 km/h (1 Bft) 0,00 %
11.08.2015 02:25 21,3 C 45 % 1012,4 hPa 0,0 l/m 0,0 km/h (0 Bft) NO 44 0 min 0,000 mm 0,0 UV-I 0 W/m 8,9 C 21,3 C 0,0 km/h (0 Bft) 0,00 %
11.08.2015 02:30 21,2 C 45 % 1012,6 hPa 0,0 l/m 4,7 km/h (1 Bft) O 95 0 min 0,000 mm 0,0 UV-I 0 W/m 8,8 C 21,2 C 7,9 km/h (2 Bft) 0,00 %
11.08.2015 02:35 21,2 C 45 % 1012,5 hPa 0,0 l/m 2,2 km/h (1 Bft) O 85 0 min 0,000 mm 0,0 UV-I 0 W/m 8,8 C 21,2 C 7,9 km/h (2 Bft) 0,00 %
11.08.2015 02:40 21,3 C 44 % 1012,5 hPa 0,0 l/m 0,0 km/h (0 Bft) NO 51 0 min 0,000 mm 0,0 UV-I 0 W/m 8,5 C 21,3 C 0,0 km/h (0 Bft) 0,00 %
11.08.2015 02:45 21,3 C 45 % 1012,4 hPa 0,0 l/m 0,0 km/h (0 Bft) O-NO 77 0 min 0,000 mm 0,0 UV-I 0 W/m 8,9 C 21,3 C 0,0 km/h (0 Bft) 0,00 %
11.08.2015 02:50 21,3 C 47 % 1012,7 hPa 0,0 l/m 0,0 km/h (0 Bft) O 82 0 min 0,000 mm 0,0 UV-I 0 W/m 9,5 C 21,3 C 0,0 km/h (0 Bft) 0,00 %
11.08.2015 02:55 21,1 C 47 % 1012,8 hPa 0,0 l/m 1,8 km/h (1 Bft) W 276 0 min 0,000 mm 0,0 UV-I 0 W/m 9,3 C 21,1 C 4,0 km/h (1 Bft) 0,00 %
11.08.2015 03:00 20,8 C 49 % 1012,9 hPa 0,0 l/m 0,0 km/h (0 Bft) N-NO 28 0 min 0,000 mm 0,0 UV-I 0 W/m 9,7 C 20,8 C 0,0 km/h (0 Bft) 0,00 %
11.08.2015 03:05 20,3 C 53 % 1012,9 hPa 0,0 l/m 0,0 km/h (0 Bft) N 354 0 min 0,000 mm 0,0 UV-I 0 W/m 10,4 C 20,3 C 0,0 km/h (0 Bft) 0,00 %
11.08.2015 03:10 19,7 C 53 % 1012,8 hPa 0,0 l/m 0,0 km/h (0 Bft) O-NO 61 0 min 0,000 mm 0,0 UV-I 0 W/m 9,8 C 19,7 C 0,0 km/h (0 Bft) 0,00 %
11.08.2015 03:15 19,4 C 55 % 1012,8 hPa 0,0 l/m 0,0 km/h (0 Bft) O 92 0 min 0,000 mm 0,0 UV-I 0 W/m 10,1 C 19,4 C 0,0 km/h (0 Bft) 0,00 %
11.08.2015 03:20 19,0 C 57 % 1012,6 hPa 0,0 l/m 0,0 km/h (0 Bft) N-NO 33 0 min 0,000 mm 0,0 UV-I 0 W/m 10,3 C 19,0 C 0,0 km/h (0 Bft) 0,00 %
11.08.2015 03:25 18,7 C 59 % 1012,6 hPa 0,0 l/m 0,0 km/h (0 Bft) O 90 0 min 0,000 mm 0,0 UV-I 0 W/m 10,5 C 18,7 C 0,0 km/h (0 Bft) 0,00 %
11.08.2015 03:30 18,5 C 60 % 1012,5 hPa 0,0 l/m 0,0 km/h (0 Bft) O 90 0 min 0,000 mm 0,0 UV-I 0 W/m 10,6 C 18,5 C 0,0 km/h (0 Bft) 0,00 %
11.08.2015 03:35 18,2 C 61 % 1012,5 hPa 0,0 l/m 0,0 km/h (0 Bft) N-NO 31 0 min 0,000 mm 0,0 UV-I 0 W/m 10,6 C 18,2 C 0,0 km/h (0 Bft) 0,00 %
11.08.2015 03:40 17,7 C 63 % 1012,6 hPa 0,0 l/m 0,0 km/h (0 Bft) O 86 0 min 0,000 mm 0,0 UV-I 0 W/m 10,6 C 17,7 C 0,0 km/h (0 Bft) 0,00 %
11.08.2015 03:45 17,4 C 63 % 1012,6 hPa 0,0 l/m 0,0 km/h (0 Bft) W 271 0 min 0,000 mm 0,0 UV-I 0 W/m 10,3 C 17,4 C 0,0 km/h (0 Bft) 0,00 %
11.08.2015 03:50 17,0 C 64 % 1012,7 hPa 0,0 l/m 0,0 km/h (0 Bft) NO 42 0 min 0,000 mm 0,0 UV-I 0 W/m 10,1 C 17,0 C 0,0 km/h (0 Bft) 0,00 %
11.08.2015 03:55 16,7 C 64 % 1012,8 hPa 0,0 l/m 0,0 km/h (0 Bft) NO 44 0 min 0,000 mm 0,0 UV-I 0 W/m 9,9 C 16,7 C 0,0 km/h (0 Bft) 0,00 %
11.08.2015 04:00 16,5 C 67 % 1012,9 hPa 0,0 l/m 0,0 km/h (0 Bft) NO 42 0 min 0,000 mm 0,0 UV-I 0 W/m 10,4 C 16,5 C 0,0 km/h (0 Bft) 0,00 %
11.08.2015 04:05 16,4 C 67 % 1012,9 hPa 0,0 l/m 0,0 km/h (0 Bft) NO 56 0 min 0,000 mm 0,0 UV-I 0 W/m 10,3 C 16,4 C 0,0 km/h (0 Bft) 0,00 %
11.08.2015 04:10 16,3 C 67 % 1012,9 hPa 0,0 l/m 0,0 km/h (0 Bft) NO 56 0 min 0,000 mm 0,0 UV-I 0 W/m 10,2 C 16,3 C 0,0 km/h (0 Bft) 0,00 %
11.08.2015 04:15 16,2 C 68 % 1012,8 hPa 0,0 l/m 0,0 km/h (0 Bft) NO 56 0 min 0,000 mm 0,0 UV-I 0 W/m 10,3 C 16,2 C 0,0 km/h (0 Bft) 0,00 %
11.08.2015 04:20 16,1 C 69 % 1012,8 hPa 0,0 l/m 0,0 km/h (0 Bft) NO 56 0 min 0,000 mm 0,0 UV-I 0 W/m 10,4 C 16,1 C 0,0 km/h (0 Bft) 0,00 %
11.08.2015 04:25 16,0 C 69 % 1013,0 hPa 0,0 l/m 0,0 km/h (0 Bft) NO 56 0 min 0,000 mm 0,0 UV-I 0 W/m 10,3 C 16,0 C 0,0 km/h (0 Bft) 0,00 %
11.08.2015 04:30 15,6 C 71 % 1012,9 hPa 0,0 l/m 0,0 km/h (0 Bft) NO 35 0 min 0,000 mm 0,0 UV-I 0 W/m 10,4 C 15,6 C 0,0 km/h (0 Bft) 0,00 %
11.08.2015 04:35 15,5 C 72 % 1013,0 hPa 0,0 l/m 0,0 km/h (0 Bft) O-NO 57 0 min 0,000 mm 0,0 UV-I 0 W/m 10,5 C 15,5 C 0,0 km/h (0 Bft) 0,00 %
11.08.2015 04:40 15,3 C 72 % 1013,1 hPa 0,0 l/m 0,0 km/h (0 Bft) O-NO 67 0 min 0,000 mm 0,0 UV-I 0 W/m 10,3 C 15,3 C 0,0 km/h (0 Bft) 0,00 %
11.08.2015 04:45 15,2 C 72 % 1013,0 hPa 0,0 l/m 0,0 km/h (0 Bft) NO 49 0 min 0,000 mm 0,0 UV-I 0 W/m 10,2 C 15,2 C 0,0 km/h (0 Bft) 0,00 %
11.08.2015 04:50 15,1 C 71 % 1012,9 hPa 0,0 l/m 0,0 km/h (0 Bft) NO 56 0 min 0,000 mm 0,0 UV-I 0 W/m 9,9 C 15,1 C 0,0 km/h (0 Bft) 0,00 %
11.08.2015 04:55 15,1 C 71 % 1013,1 hPa 0,0 l/m 0,0 km/h (0 Bft) O-NO 59 0 min 0,000 mm 0,0 UV-I 0 W/m 9,9 C 15,1 C 0,0 km/h (0 Bft) 0,00 %
11.08.2015 05:00 15,2 C 73 % 1013,5 hPa 0,0 l/m 0,0 km/h (0 Bft) NO 53 0 min 0,000 mm 0,0 UV-I 0 W/m 10,4 C 15,2 C 0,0 km/h (0 Bft) 0,00 %
11.08.2015 05:05 15,2 C 72 % 1013,6 hPa 0,0 l/m 0,0 km/h (0 Bft) NO 45 0 min 0,000 mm 0,0 UV-I 0 W/m 10,2 C 15,2 C 0,0 km/h (0 Bft) 0,00 %
11.08.2015 05:10 15,3 C 70 % 1013,5 hPa 0,0 l/m 0,0 km/h (0 Bft) N 356 0 min 0,000 mm 0,0 UV-I 0 W/m 9,9 C 15,3 C 0,0 km/h (0 Bft) 0,00 %
11.08.2015 05:15 15,4 C 70 % 1013,6 hPa 0,0 l/m 0,0 km/h (0 Bft) N-NO 20 0 min 0,000 mm 0,0 UV-I 0 W/m 10,0 C 15,4 C 0,0 km/h (0 Bft) 0,00 %
11.08.2015 05:20 15,6 C 70 % 1013,7 hPa 0,0 l/m 0,0 km/h (0 Bft) NO 41 0 min 0,000 mm 0,0 UV-I 0 W/m 10,1 C 15,6 C 0,0 km/h (0 Bft) 0,00 %
11.08.2015 05:25 15,6 C 70 % 1013,7 hPa 0,0 l/m 0,0 km/h (0 Bft) O-NO 71 0 min 0,000 mm 0,0 UV-I 0 W/m 10,1 C 15,6 C 0,0 km/h (0 Bft) 0,00 %
11.08.2015 05:30 15,6 C 70 % 1013,6 hPa 0,0 l/m 0,0 km/h (0 Bft) N-NO 31 0 min 0,000 mm 0,0 UV-I 0 W/m 10,1 C 15,6 C 0,0 km/h (0 Bft) 0,00 %
11.08.2015 05:35 15,5 C 71 % 1013,6 hPa 0,0 l/m 0,0 km/h (0 Bft) NO 50 0 min 0,000 mm 0,0 UV-I 0 W/m 10,3 C 15,5 C 0,0 km/h (0 Bft) 0,00 %
11.08.2015 05:40 15,4 C 72 % 1013,7 hPa 0,0 l/m 0,0 km/h (0 Bft) NO 46 0 min 0,000 mm 0,0 UV-I 0 W/m 10,4 C 15,4 C 0,0 km/h (0 Bft) 0,00 %
11.08.2015 05:45 15,3 C 72 % 1013,7 hPa 0,0 l/m 0,0 km/h (0 Bft) O-NO 60 0 min 0,000 mm 0,0 UV-I 0 W/m 10,3 C 15,3 C 0,0 km/h (0 Bft) 0,00 %
11.08.2015 05:51 15,3 C 73 % 1014,0 hPa 0,0 l/m 0,0 km/h (0 Bft) NO 47 0 min 0,000 mm 0,0 UV-I 0 W/m 10,5 C 15,3 C 0,0 km/h (0 Bft) 0,00 %
11.08.2015 05:56 15,3 C 72 % 1013,8 hPa 0,0 l/m 0,0 km/h (0 Bft) NO 41 0 min 0,000 mm 0,0 UV-I 0 W/m 10,3 C 15,3 C 0,0 km/h (0 Bft) 0,00 %
11.08.2015 06:01 15,3 C 72 % 1013,9 hPa 0,0 l/m 0,0 km/h (0 Bft) NO 41 0 min 0,000 mm 0,0 UV-I 4 W/m 10,3 C 15,3 C 0,0 km/h (0 Bft) 0,00 %
11.08.2015 06:06 15,3 C 72 % 1013,8 hPa 0,0 l/m 0,0 km/h (0 Bft) NO 44 0 min 0,000 mm 0,0 UV-I 8 W/m 10,3 C 15,3 C 0,0 km/h (0 Bft) 0,00 %
11.08.2015 06:11 15,2 C 73 % 1014,0 hPa 0,0 l/m 0,0 km/h (0 Bft) NO 44 0 min 0,000 mm 0,0 UV-I 16 W/m 10,4 C 15,2 C 0,0 km/h (0 Bft) 0,00 %
11.08.2015 06:16 15,2 C 73 % 1014,0 hPa 0,0 l/m 0,0 km/h (0 Bft) NO 42 0 min 0,000 mm 0,0 UV-I 21 W/m 10,4 C 15,2 C 0,0 km/h (0 Bft) 0,00 %
11.08.2015 06:21 15,1 C 73 % 1014,1 hPa 0,0 l/m 0,0 km/h (0 Bft) NO 50 0 min 0,000 mm 0,0 UV-I 26 W/m 10,3 C 15,1 C 0,0 km/h (0 Bft) 0,00 %
11.08.2015 06:26 15,1 C 73 % 1014,0 hPa 0,0 l/m 0,0 km/h (0 Bft) NO 38 0 min 0,000 mm 0,0 UV-I 32 W/m 10,3 C 15,1 C 0,0 km/h (0 Bft) 0,00 %
11.08.2015 06:31 15,2 C 73 % 1014,2 hPa 0,0 l/m 0,0 km/h (0 Bft) NO 42 0 min 0,000 mm 0,0 UV-I 37 W/m 10,4 C 15,2 C 0,0 km/h (0 Bft) 0,00 %
11.08.2015 06:36 15,3 C 72 % 1014,1 hPa 0,0 l/m 0,0 km/h (0 Bft) NW 313 0 min 0,000 mm 0,0 UV-I 50 W/m 10,3 C 15,3 C 0,0 km/h (0 Bft) 0,00 %
11.08.2015 06:41 15,6 C 71 % 1014,2 hPa 0,0 l/m 0,0 km/h (0 Bft) N 357 0 min 0,000 mm 0,0 UV-I 50 W/m 10,4 C 15,6 C 0,0 km/h (0 Bft) 0,00 %
11.08.2015 06:46 15,8 C 69 % 1014,1 hPa 0,0 l/m 0,0 km/h (0 Bft) NO 52 0 min 0,000 mm 0,0 UV-I 61 W/m 10,1 C 15,8 C 0,0 km/h (0 Bft) 0,00 %
11.08.2015 06:51 16,1 C 69 % 1014,2 hPa 0,0 l/m 0,0 km/h (0 Bft) NO 43 0 min 0,000 mm 0,0 UV-I 75 W/m 10,4 C 16,1 C 0,0 km/h (0 Bft) 0,00 %
11.08.2015 06:56 16,4 C 69 % 1014,2 hPa 0,0 l/m 0,0 km/h (0 Bft) NO 45 0 min 0,000 mm 0,0 UV-I 60 W/m 10,7 C 16,4 C 0,0 km/h (0 Bft) 0,00 %
11.08.2015 07:01 16,7 C 68 % 1014,2 hPa 0,0 l/m 0,0 km/h (0 Bft) NO 42 5 min 0,000 mm 0,0 UV-I 101 W/m 10,8 C 16,7 C 0,0 km/h (0 Bft) 0,00 %
11.08.2015 07:06 17,0 C 67 % 1014,3 hPa 0,0 l/m 0,0 km/h (0 Bft) NO 42 5 min 0,000 mm 0,0 UV-I 130 W/m 10,8 C 17,0 C 0,0 km/h (0 Bft) 0,00 %
11.08.2015 07:11 17,4 C 65 % 1014,3 hPa 0,0 l/m 0,0 km/h (0 Bft) NO 43 5 min 0,000 mm 0,0 UV-I 151 W/m 10,8 C 17,4 C 0,0 km/h (0 Bft) 0,00 %
11.08.2015 07:16 18,1 C 64 % 1014,3 hPa 0,0 l/m 0,0 km/h (0 Bft) NO 35 5 min 0,000 mm 1,0 UV-I 159 W/m 11,2 C 18,1 C 0,0 km/h (0 Bft) 0,00 %
11.08.2015 07:21 18,8 C 62 % 1014,3 hPa 0,0 l/m 0,0 km/h (0 Bft) NO 48 5 min 0,000 mm 1,0 UV-I 191 W/m 11,4 C 18,8 C 0,0 km/h (0 Bft) 0,00 %
11.08.2015 07:26 19,3 C 61 % 1014,4 hPa 0,0 l/m 0,0 km/h (0 Bft) N-NO 20 5 min 0,000 mm 1,0 UV-I 191 W/m 11,6 C 19,3 C 0,0 km/h (0 Bft) 0,00 %
11.08.2015 07:31 19,9 C 59 % 1014,5 hPa 0,0 l/m 0,0 km/h (0 Bft) N-NO 25 5 min 0,000 mm 1,0 UV-I 188 W/m 11,6 C 19,9 C 0,0 km/h (0 Bft) 0,00 %
11.08.2015 07:36 20,4 C 58 % 1014,5 hPa 0,0 l/m 0,0 km/h (0 Bft) NO 46 5 min 0,000 mm 1,0 UV-I 189 W/m 11,9 C 20,4 C 0,0 km/h (0 Bft) 0,00 %
11.08.2015 07:41 20,8 C 56 % 1014,5 hPa 0,0 l/m 0,0 km/h (0 Bft) NO 48 5 min 0,000 mm 1,0 UV-I 203 W/m 11,7 C 20,8 C 0,0 km/h (0 Bft) 0,00 %
11.08.2015 07:46 21,3 C 54 % 1014,7 hPa 0,0 l/m 0,0 km/h (0 Bft) NO 42 5 min 0,000 mm 1,0 UV-I 221 W/m 11,6 C 21,3 C 0,0 km/h (0 Bft) 0,00 %
11.08.2015 07:51 22,0 C 52 % 1014,4 hPa 0,0 l/m 0,0 km/h (0 Bft) NO 38 5 min 0,000 mm 1,0 UV-I 240 W/m 11,7 C 22,0 C 0,0 km/h (0 Bft) 0,00 %
11.08.2015 07:56 22,6 C 51 % 1014,6 hPa 0,0 l/m 0,0 km/h (0 Bft) NO 47 5 min 0,000 mm 1,0 UV-I 250 W/m 11,9 C 22,6 C 0,0 km/h (0 Bft) 0,00 %
11.08.2015 08:01 23,0 C 50 % 1014,5 hPa 0,0 l/m 0,0 km/h (0 Bft) NO 45 5 min 0,000 mm 1,0 UV-I 246 W/m 12,0 C 23,0 C 0,0 km/h (0 Bft) 0,00 %
11.08.2015 08:06 23,3 C 48 % 1014,7 hPa 0,0 l/m 0,0 km/h (0 Bft) NO 41 5 min 0,000 mm 1,0 UV-I 251 W/m 11,7 C 23,3 C 0,0 km/h (0 Bft) 0,00 %
11.08.2015 08:11 23,7 C 46 % 1014,8 hPa 0,0 l/m 0,0 km/h (0 Bft) NO 42 5 min 0,000 mm 1,0 UV-I 248 W/m 11,4 C 23,7 C 0,0 km/h (0 Bft) 0,00 %
11.08.2015 08:16 24,1 C 44 % 1014,9 hPa 0,0 l/m 0,0 km/h (0 Bft) NO 37 5 min 0,000 mm 1,0 UV-I 267 W/m 11,1 C 24,1 C 0,0 km/h (0 Bft) 0,00 %
11.08.2015 08:21 24,4 C 43 % 1014,9 hPa 0,0 l/m 0,0 km/h (0 Bft) NO 44 5 min 0,000 mm 1,0 UV-I 262 W/m 11,0 C 24,4 C 0,0 km/h (0 Bft) 0,00 %
11.08.2015 08:26 24,8 C 42 % 1015,0 hPa 0,0 l/m 0,0 km/h (0 Bft) N 11 0 min 0,000 mm 1,0 UV-I 221 W/m 11,0 C 24,8 C 0,0 km/h (0 Bft) 0,00 %
11.08.2015 08:31 25,2 C 41 % 1014,8 hPa 0,0 l/m 0,0 km/h (0 Bft) NO 40 5 min 0,000 mm 1,0 UV-I 238 W/m 11,0 C 25,2 C 0,0 km/h (0 Bft) 0,00 %
11.08.2015 08:36 25,4 C 41 % 1015,0 hPa 0,0 l/m 0,0 km/h (0 Bft) N-NO 28 5 min 0,000 mm 1,0 UV-I 254 W/m 11,2 C 25,4 C 0,0 km/h (0 Bft) 0,00 %
11.08.2015 08:41 25,5 C 42 % 1015,1 hPa 0,0 l/m 0,0 km/h (0 Bft) N 352 5 min 0,000 mm 1,0 UV-I 258 W/m 11,6 C 25,5 C 0,0 km/h (0 Bft) 0,00 %
11.08.2015 08:46 25,5 C 46 % 1015,0 hPa 0,0 l/m 0,0 km/h (0 Bft) N-NW 337 5 min 0,000 mm 1,0 UV-I 262 W/m 13,0 C 25,5 C 0,0 km/h (0 Bft) 0,00 %
11.08.2015 08:51 25,6 C 46 % 1015,0 hPa 0,0 l/m 0,0 km/h (0 Bft) NO 38 5 min 0,000 mm 1,0 UV-I 279 W/m 13,1 C 25,6 C 0,0 km/h (0 Bft) 0,00 %
11.08.2015 08:56 25,8 C 47 % 1015,2 hPa 0,0 l/m 0,0 km/h (0 Bft) NO 47 5 min 0,000 mm 1,0 UV-I 310 W/m 13,6 C 25,8 C 0,0 km/h (0 Bft) 0,00 %
11.08.2015 09:01 26,1 C 46 % 1015,0 hPa 0,0 l/m 0,0 km/h (0 Bft) O-NO 73 5 min 0,000 mm 1,0 UV-I 312 W/m 13,6 C 26,1 C 0,0 km/h (0 Bft) 0,00 %
11.08.2015 09:06 26,6 C 46 % 1015,1 hPa 0,0 l/m 0,0 km/h (0 Bft) N 352 5 min 0,000 mm 1,0 UV-I 316 W/m 14,0 C 26,6 C 0,0 km/h (0 Bft) 0,00 %
11.08.2015 09:11 26,8 C 46 % 1015,2 hPa 0,0 l/m 0,0 km/h (0 Bft) NO 47 5 min 0,000 mm 1,0 UV-I 342 W/m 14,2 C 26,8 C 0,0 km/h (0 Bft) 0,00 %
11.08.2015 09:16 27,0 C 46 % 1015,3 hPa 0,0 l/m 0,0 km/h (0 Bft) O-NO 58 5 min 0,000 mm 1,0 UV-I 326 W/m 14,4 C 27,0 C 0,0 km/h (0 Bft) 0,00 %
11.08.2015 09:21 27,2 C 48 % 1015,1 hPa 0,0 l/m 0,0 km/h (0 Bft) NO 36 5 min 0,000 mm 1,0 UV-I 312 W/m 15,2 C 27,2 C 0,0 km/h (0 Bft) 0,00 %
11.08.2015 09:26 27,0 C 50 % 1015,2 hPa 0,0 l/m 0,0 km/h (0 Bft) N-NW 340 5 min 0,000 mm 2,0 UV-I 346 W/m 15,7 C 27,0 C 0,0 km/h (0 Bft) 0,00 %
11.08.2015 09:31 26,8 C 51 % 1015,1 hPa 0,0 l/m 0,0 km/h (0 Bft) NO 44 5 min 0,000 mm 2,0 UV-I 373 W/m 15,8 C 26,8 C 0,0 km/h (0 Bft) 0,00 %
11.08.2015 09:36 26,9 C 50 % 1015,2 hPa 0,0 l/m 0,0 km/h (0 Bft) N-NW 345 5 min 0,000 mm 2,0 UV-I 405 W/m 15,6 C 26,9 C 0,0 km/h (0 Bft) 0,00 %
11.08.2015 09:41 27,2 C 48 % 1015,1 hPa 0,0 l/m 0,0 km/h (0 Bft) NO 40 5 min 0,000 mm 2,0 UV-I 468 W/m 15,2 C 27,2 C 0,0 km/h (0 Bft) 0,00 %
11.08.2015 09:46 27,6 C 47 % 1015,2 hPa 0,0 l/m 0,4 km/h (0 Bft) NW 323 5 min 0,000 mm 2,0 UV-I 476 W/m 15,3 C 27,6 C 4,0 km/h (1 Bft) 0,00 %
11.08.2015 09:51 28,1 C 45 % 1015,1 hPa 0,0 l/m 0,0 km/h (0 Bft) NO 37 5 min 0,000 mm 2,0 UV-I 522 W/m 15,0 C 28,1 C 0,0 km/h (0 Bft) 0,00 %
11.08.2015 09:56 28,6 C 44 % 1015,1 hPa 0,0 l/m 0,0 km/h (0 Bft) O-NO 68 5 min 0,000 mm 2,0 UV-I 553 W/m 15,1 C 28,6 C 0,0 km/h (0 Bft) 0,00 %
11.08.2015 10:01 28,9 C 43 % 1015,1 hPa 0,0 l/m 0,0 km/h (0 Bft) O-NO 63 5 min 0,000 mm 2,0 UV-I 505 W/m 15,0 C 28,9 C 0,0 km/h (0 Bft) 0,00 %
11.08.2015 10:06 29,0 C 43 % 1015,3 hPa 0,0 l/m 0,0 km/h (0 Bft) O 80 5 min 0,000 mm 2,0 UV-I 482 W/m 15,1 C 29,0 C 0,0 km/h (0 Bft) 0,00 %
11.08.2015 10:11 29,2 C 43 % 1015,1 hPa 0,0 l/m 0,0 km/h (0 Bft) N-NW 343 5 min 0,000 mm 2,0 UV-I 502 W/m 15,3 C 29,2 C 0,0 km/h (0 Bft) 0,00 %
11.08.2015 10:16 29,3 C 43 % 1015,2 hPa 0,0 l/m 0,0 km/h (0 Bft) N-NW 340 5 min 0,000 mm 2,0 UV-I 469 W/m 15,4 C 29,3 C 0,0 km/h (0 Bft) 0,00 %
11.08.2015 10:21 29,3 C 44 % 1015,4 hPa 0,0 l/m 0,0 km/h (0 Bft) O 96 5 min 0,000 mm 2,0 UV-I 448 W/m 15,8 C 29,3 C 0,0 km/h (0 Bft) 0,00 %
11.08.2015 10:26 29,0 C 45 % 1015,2 hPa 0,0 l/m 0,0 km/h (0 Bft) NO 44 5 min 0,000 mm 2,0 UV-I 450 W/m 15,8 C 29,0 C 0,0 km/h (0 Bft) 0,00 %
11.08.2015 10:31 28,8 C 45 % 1015,2 hPa 0,0 l/m 0,0 km/h (0 Bft) NO 53 5 min 0,000 mm 2,0 UV-I 527 W/m 15,7 C 28,8 C 0,0 km/h (0 Bft) 0,00 %
11.08.2015 10:36 28,8 C 45 % 1015,3 hPa 0,0 l/m 0,0 km/h (0 Bft) NO 34 5 min 0,000 mm 2,0 UV-I 600 W/m 15,7 C 28,8 C 0,0 km/h (0 Bft) 0,00 %
11.08.2015 10:41 29,0 C 44 % 1015,4 hPa 0,0 l/m 0,0 km/h (0 Bft) N-NW 339 5 min 0,000 mm 3,0 UV-I 671 W/m 15,5 C 29,0 C 0,0 km/h (0 Bft) 0,00 %
11.08.2015 10:46 29,5 C 43 % 1015,2 hPa 0,0 l/m 0,0 km/h (0 Bft) NO 52 5 min 0,000 mm 3,0 UV-I 701 W/m 15,6 C 29,5 C 0,0 km/h (0 Bft) 0,00 %
11.08.2015 10:51 30,0 C 43 % 1015,2 hPa 0,0 l/m 0,0 km/h (0 Bft) N-NO 33 5 min 0,000 mm 3,0 UV-I 729 W/m 16,0 C 30,0 C 0,0 km/h (0 Bft) 0,00 %
11.08.2015 10:56 30,1 C 41 % 1015,4 hPa 0,0 l/m 0,0 km/h (0 Bft) NO 41 5 min 0,000 mm 3,0 UV-I 690 W/m 15,4 C 30,1 C 0,0 km/h (0 Bft) 0,00 %
11.08.2015 11:01 30,1 C 41 % 1015,5 hPa 0,0 l/m 0,0 km/h (0 Bft) NO 50 5 min 0,000 mm 3,0 UV-I 720 W/m 15,4 C 30,1 C 0,0 km/h (0 Bft) 0,00 %
11.08.2015 11:06 30,2 C 42 % 1015,3 hPa 0,0 l/m 0,0 km/h (0 Bft) NO 42 5 min 0,000 mm 3,0 UV-I 799 W/m 15,8 C 30,2 C 0,0 km/h (0 Bft) 0,00 %
11.08.2015 11:11 30,4 C 41 % 1015,4 hPa 0,0 l/m 0,0 km/h (0 Bft) N-NO 14 5 min 0,000 mm 3,0 UV-I 781 W/m 15,6 C 30,4 C 0,0 km/h (0 Bft) 0,00 %
11.08.2015 11:16 30,6 C 41 % 1015,4 hPa 0,0 l/m 0,0 km/h (0 Bft) NO 52 5 min 0,000 mm 3,0 UV-I 814 W/m 15,8 C 30,6 C 0,0 km/h (0 Bft) 0,00 %
11.08.2015 11:21 30,8 C 41 % 1015,4 hPa 0,0 l/m 0,0 km/h (0 Bft) N-NW 347 5 min 0,000 mm 3,0 UV-I 844 W/m 16,0 C 30,8 C 0,0 km/h (0 Bft) 0,00 %
11.08.2015 11:26 31,2 C 39 % 1015,3 hPa 0,0 l/m 0,7 km/h (0 Bft) NO 52 5 min 0,000 mm 3,0 UV-I 796 W/m 15,6 C 31,2 C 4,0 km/h (1 Bft) 0,00 %
11.08.2015 11:31 31,4 C 39 % 1015,3 hPa 0,0 l/m 0,0 km/h (0 Bft) N-NO 31 5 min 0,000 mm 3,0 UV-I 645 W/m 15,7 C 31,4 C 0,0 km/h (0 Bft) 0,00 %
11.08.2015 11:36 31,1 C 40 % 1015,4 hPa 0,0 l/m 0,0 km/h (0 Bft) N-NO 19 5 min 0,000 mm 2,0 UV-I 474 W/m 15,9 C 31,1 C 0,0 km/h (0 Bft) 0,00 %
11.08.2015 11:41 30,6 C 41 % 1015,3 hPa 0,0 l/m 0,4 km/h (0 Bft) NO 43 5 min 0,000 mm 3,0 UV-I 735 W/m 15,8 C 30,6 C 4,0 km/h (1 Bft) 0,00 %
11.08.2015 11:46 30,1 C 42 % 1015,2 hPa 0,0 l/m 0,0 km/h (0 Bft) NO 49 5 min 0,000 mm 3,0 UV-I 701 W/m 15,7 C 30,1 C 0,0 km/h (0 Bft) 0,00 %
11.08.2015 11:51 30,0 C 42 % 1015,3 hPa 0,0 l/m 0,0 km/h (0 Bft) N-NW 345 5 min 0,000 mm 3,0 UV-I 625 W/m 15,7 C 30,0 C 0,0 km/h (0 Bft) 0,00 %
11.08.2015 11:56 30,1 C 40 % 1015,3 hPa 0,0 l/m 0,0 km/h (0 Bft) N-NO 26 5 min 0,000 mm 4,0 UV-I 811 W/m 15,0 C 30,1 C 0,0 km/h (0 Bft) 0,00 %
11.08.2015 12:01 30,4 C 38 % 1015,1 hPa 0,0 l/m 0,0 km/h (0 Bft) SO 136 5 min 0,000 mm 4,0 UV-I 936 W/m 14,5 C 30,4 C 0,0 km/h (0 Bft) 0,00 %
11.08.2015 12:06 31,2 C 39 % 1015,2 hPa 0,0 l/m 4,3 km/h (1 Bft) W-SW 256 5 min 0,000 mm 4,0 UV-I 893 W/m 15,6 C 31,2 C 7,9 km/h (2 Bft) 0,00 %
11.08.2015 12:11 31,7 C 38 % 1015,2 hPa 0,0 l/m 0,4 km/h (0 Bft) N-NW 340 5 min 0,000 mm 4,0 UV-I 817 W/m 15,6 C 31,7 C 4,0 km/h (1 Bft) 0,00 %
11.08.2015 12:16 31,7 C 38 % 1015,2 hPa 0,0 l/m 3,2 km/h (1 Bft) NW 309 5 min 0,000 mm 4,0 UV-I 854 W/m 15,6 C 31,7 C 4,0 km/h (1 Bft) 0,00 %
11.08.2015 12:21 31,3 C 39 % 1015,2 hPa 0,0 l/m 2,9 km/h (1 Bft) O 94 5 min 0,000 mm 3,0 UV-I 699 W/m 15,7 C 31,3 C 4,0 km/h (1 Bft) 0,00 %
11.08.2015 12:26 30,7 C 39 % 1015,1 hPa 0,0 l/m 0,0 km/h (0 Bft) O-NO 73 5 min 0,000 mm 3,0 UV-I 642 W/m 15,1 C 30,7 C 0,0 km/h (0 Bft) 0,00 %
11.08.2015 12:31 30,4 C 40 % 1014,9 hPa 0,0 l/m 0,4 km/h (0 Bft) O 99 5 min 0,000 mm 3,0 UV-I 633 W/m 15,3 C 30,4 C 4,0 km/h (1 Bft) 0,00 %
11.08.2015 12:36 30,4 C 40 % 1015,1 hPa 0,0 l/m 0,0 km/h (0 Bft) NO 50 5 min 0,000 mm 3,0 UV-I 596 W/m 15,3 C 30,4 C 0,0 km/h (0 Bft) 0,00 %
11.08.2015 12:41 30,5 C 39 % 1014,9 hPa 0,0 l/m 0,0 km/h (0 Bft) SW 232 5 min 0,000 mm 3,0 UV-I 582 W/m 15,0 C 30,5 C 0,0 km/h (0 Bft) 0,00 %
11.08.2015 12:46 30,5 C 38 % 1014,7 hPa 0,0 l/m 0,0 km/h (0 Bft) N-NO 33 5 min 0,000 mm 3,0 UV-I 624 W/m 14,5 C 30,5 C 0,0 km/h (0 Bft) 0,00 %
11.08.2015 12:51 30,6 C 38 % 1014,9 hPa 0,0 l/m 0,0 km/h (0 Bft) N 10 5 min 0,000 mm 4,0 UV-I 806 W/m 14,6 C 30,6 C 0,0 km/h (0 Bft) 0,00 %
11.08.2015 12:56 30,9 C 38 % 1014,8 hPa 0,0 l/m 5,8 km/h (2 Bft) W-SW 256 5 min 0,000 mm 4,0 UV-I 773 W/m 14,9 C 30,9 C 7,9 km/h (2 Bft) 0,00 %
11.08.2015 13:01 31,1 C 39 % 1014,8 hPa 0,0 l/m 1,8 km/h (1 Bft) W-NW 299 5 min 0,000 mm 4,0 UV-I 782 W/m 15,5 C 31,1 C 4,0 km/h (1 Bft) 0,00 %
11.08.2015 13:06 31,3 C 38 % 1014,8 hPa 0,0 l/m 2,2 km/h (1 Bft) N-NW 348 5 min 0,000 mm 4,0 UV-I 796 W/m 15,3 C 31,3 C 4,0 km/h (1 Bft) 0,00 %
11.08.2015 13:11 31,4 C 36 % 1014,6 hPa 0,0 l/m 0,7 km/h (0 Bft) O-NO 61 5 min 0,000 mm 3,0 UV-I 673 W/m 14,5 C 31,4 C 4,0 km/h (1 Bft) 0,00 %
11.08.2015 13:16 31,4 C 38 % 1014,7 hPa 0,0 l/m 0,0 km/h (0 Bft) O-SO 103 5 min 0,000 mm 3,0 UV-I 536 W/m 15,3 C 31,4 C 0,0 km/h (0 Bft) 0,00 %
11.08.2015 13:21 31,4 C 36 % 1014,5 hPa 0,0 l/m 1,8 km/h (1 Bft) NW 326 5 min 0,000 mm 3,0 UV-I 711 W/m 14,5 C 31,4 C 4,0 km/h (1 Bft) 0,00 %
11.08.2015 13:26 31,4 C 38 % 1014,6 hPa 0,0 l/m 0,0 km/h (0 Bft) NO 40 5 min 0,000 mm 4,0 UV-I 864 W/m 15,3 C 31,4 C 0,0 km/h (0 Bft) 0,00 %
11.08.2015 13:31 31,7 C 36 % 1014,5 hPa 0,0 l/m 0,7 km/h (0 Bft) N-NW 345 5 min 0,000 mm 4,0 UV-I 992 W/m 14,8 C 31,7 C 4,0 km/h (1 Bft) 0,00 %
11.08.2015 13:36 31,9 C 37 % 1014,5 hPa 0,0 l/m 1,4 km/h (1 Bft) S 183 5 min 0,000 mm 4,0 UV-I 1009 W/m 15,4 C 31,9 C 4,0 km/h (1 Bft) 0,00 %
11.08.2015 13:41 32,2 C 35 % 1014,3 hPa 0,0 l/m 0,0 km/h (0 Bft) N-NO 13 5 min 0,000 mm 4,0 UV-I 979 W/m 14,8 C 32,2 C 0,0 km/h (0 Bft) 0,00 %
11.08.2015 13:46 32,2 C 35 % 1014,5 hPa 0,0 l/m 0,7 km/h (0 Bft) SW 228 5 min 0,000 mm 4,0 UV-I 963 W/m 14,8 C 32,2 C 4,0 km/h (1 Bft) 0,00 %
11.08.2015 13:51 32,2 C 35 % 1014,4 hPa 0,0 l/m 0,4 km/h (0 Bft) NO 39 5 min 0,000 mm 4,0 UV-I 946 W/m 14,8 C 32,2 C 4,0 km/h (1 Bft) 0,00 %
11.08.2015 13:56 32,5 C 32 % 1014,3 hPa 0,0 l/m 0,0 km/h (0 Bft) NO 42 5 min 0,000 mm 4,0 UV-I 937 W/m 13,6 C 32,5 C 0,0 km/h (0 Bft) 0,00 %
11.08.2015 14:01 32,8 C 30 % 1014,2 hPa 0,0 l/m 2,9 km/h (1 Bft) SO 127 5 min 0,000 mm 3,0 UV-I 816 W/m 12,9 C 32,8 C 4,0 km/h (1 Bft) 0,00 %
11.08.2015 14:06 33,1 C 29 % 1014,3 hPa 0,0 l/m 1,4 km/h (1 Bft) O-SO 109 5 min 0,000 mm 3,0 UV-I 880 W/m 12,6 C 33,1 C 4,0 km/h (1 Bft) 0,00 %
11.08.2015 14:11 32,8 C 31 % 1014,1 hPa 0,0 l/m 7,9 km/h (2 Bft) O-SO 117 5 min 0,000 mm 3,0 UV-I 894 W/m 13,4 C 32,8 C 11,9 km/h (2 Bft) 0,00 %
11.08.2015 14:16 32,4 C 30 % 1014,2 hPa 0,0 l/m 1,8 km/h (1 Bft) O 82 5 min 0,000 mm 3,0 UV-I 852 W/m 12,6 C 32,4 C 4,0 km/h (1 Bft) 0,00 %
11.08.2015 14:21 32,2 C 28 % 1014,0 hPa 0,0 l/m 2,9 km/h (1 Bft) O-NO 57 5 min 0,000 mm 3,0 UV-I 839 W/m 11,3 C 32,2 C 4,0 km/h (1 Bft) 0,00 %
11.08.2015 14:26 32,0 C 27 % 1014,2 hPa 0,0 l/m 1,8 km/h (1 Bft) O-NO 70 5 min 0,000 mm 3,0 UV-I 786 W/m 10,6 C 32,0 C 4,0 km/h (1 Bft) 0,00 %
11.08.2015 14:31 31,8 C 26 % 1014,0 hPa 0,0 l/m 0,0 km/h (0 Bft) O-NO 60 5 min 0,000 mm 3,0 UV-I 782 W/m 9,9 C 31,8 C 0,0 km/h (0 Bft) 0,00 %
11.08.2015 14:36 31,7 C 26 % 1014,2 hPa 0,0 l/m 2,2 km/h (1 Bft) N-NW 344 5 min 0,000 mm 3,0 UV-I 838 W/m 9,8 C 31,7 C 4,0 km/h (1 Bft) 0,00 %
11.08.2015 14:41 31,9 C 30 % 1014,0 hPa 0,0 l/m 0,0 km/h (0 Bft) O-NO 60 5 min 0,000 mm 3,0 UV-I 854 W/m 12,1 C 31,9 C 0,0 km/h (0 Bft) 0,00 %
11.08.2015 14:46 32,2 C 27 % 1014,2 hPa 0,0 l/m 0,4 km/h (0 Bft) O 84 5 min 0,000 mm 3,0 UV-I 913 W/m 10,8 C 32,2 C 4,0 km/h (1 Bft) 0,00 %
11.08.2015 14:51 32,7 C 26 % 1014,1 hPa 0,0 l/m 0,0 km/h (0 Bft) O 95 5 min 0,000 mm 3,0 UV-I 932 W/m 10,7 C 32,7 C 0,0 km/h (0 Bft) 0,00 %
11.08.2015 14:56 33,1 C 24 % 1014,0 hPa 0,0 l/m 0,0 km/h (0 Bft) NW 325 5 min 0,000 mm 3,0 UV-I 952 W/m 9,8 C 33,1 C 0,0 km/h (0 Bft) 0,00 %
11.08.2015 15:01 33,4 C 27 % 1013,9 hPa 0,0 l/m 0,0 km/h (0 Bft) NW 325 5 min 0,000 mm 3,0 UV-I 922 W/m 11,8 C 33,4 C 0,0 km/h (0 Bft) 0,00 %
11.08.2015 15:06 33,8 C 23 % 1013,9 hPa 0,0 l/m 4,7 km/h (1 Bft) O-SO 104 5 min 0,000 mm 3,0 UV-I 909 W/m 9,7 C 33,8 C 7,9 km/h (2 Bft) 0,00 %
11.08.2015 15:11 34,0 C 24 % 1014,0 hPa 0,0 l/m 4,3 km/h (1 Bft) O 91 5 min 0,000 mm 3,0 UV-I 911 W/m 10,5 C 34,0 C 7,9 km/h (2 Bft) 0,00 %
11.08.2015 15:16 33,7 C 23 % 1013,8 hPa 0,0 l/m 6,8 km/h (2 Bft) SO 141 5 min 0,000 mm 3,0 UV-I 907 W/m 9,7 C 33,7 C 11,9 km/h (2 Bft) 0,00 %
11.08.2015 15:21 33,3 C 24 % 1014,0 hPa 0,0 l/m 4,3 km/h (1 Bft) O 100 5 min 0,000 mm 3,0 UV-I 900 W/m 10,0 C 33,3 C 7,9 km/h (2 Bft) 0,00 %
11.08.2015 15:26 33,1 C 26 % 1013,8 hPa 0,0 l/m 0,0 km/h (0 Bft) N 354 5 min 0,000 mm 3,0 UV-I 870 W/m 11,0 C 33,1 C 0,0 km/h (0 Bft) 0,00 %
11.08.2015 15:31 33,3 C 26 % 1013,9 hPa 0,0 l/m 0,0 km/h (0 Bft) NO 44 5 min 0,000 mm 3,0 UV-I 886 W/m 11,2 C 33,3 C 0,0 km/h (0 Bft) 0,00 %
11.08.2015 15:36 33,6 C 24 % 1013,9 hPa 0,0 l/m 0,0 km/h (0 Bft) N 352 5 min 0,000 mm 2,0 UV-I 805 W/m 10,2 C 33,6 C 0,0 km/h (0 Bft) 0,00 %
11.08.2015 15:41 33,8 C 24 % 1013,7 hPa 0,0 l/m 0,0 km/h (0 Bft) NO 42 5 min 0,000 mm 2,0 UV-I 808 W/m 10,4 C 33,8 C 0,0 km/h (0 Bft) 0,00 %
11.08.2015 15:46 34,0 C 22 % 1013,7 hPa 0,0 l/m 1,4 km/h (1 Bft) O-NO 62 5 min 0,000 mm 2,0 UV-I 796 W/m 9,2 C 34,0 C 4,0 km/h (1 Bft) 0,00 %
11.08.2015 15:51 34,2 C 22 % 1013,6 hPa 0,0 l/m 6,8 km/h (2 Bft) NW 315 5 min 0,000 mm 2,0 UV-I 827 W/m 9,4 C 34,2 C 7,9 km/h (2 Bft) 0,00 %
11.08.2015 15:56 34,2 C 22 % 1013,6 hPa 0,0 l/m 2,2 km/h (1 Bft) N-NW 348 5 min 0,000 mm 2,0 UV-I 816 W/m 9,4 C 34,2 C 4,0 km/h (1 Bft) 0,00 %
11.08.2015 16:01 33,9 C 23 % 1013,6 hPa 0,0 l/m 4,0 km/h (1 Bft) N-NO 23 5 min 0,000 mm 2,0 UV-I 724 W/m 9,8 C 33,9 C 7,9 km/h (2 Bft) 0,00 %
11.08.2015 16:06 33,4 C 24 % 1013,6 hPa 0,0 l/m 2,2 km/h (1 Bft) O-NO 58 5 min 0,000 mm 2,0 UV-I 793 W/m 10,0 C 33,4 C 4,0 km/h (1 Bft) 0,00 %
11.08.2015 16:11 33,0 C 25 % 1013,4 hPa 0,0 l/m 0,4 km/h (0 Bft) N 351 5 min 0,000 mm 2,0 UV-I 822 W/m 10,3 C 33,0 C 4,0 km/h (1 Bft) 0,00 %
11.08.2015 16:16 32,9 C 23 % 1013,5 hPa 0,0 l/m 4,7 km/h (1 Bft) O 86 5 min 0,000 mm 2,0 UV-I 828 W/m 9,0 C 32,9 C 7,9 km/h (2 Bft) 0,00 %
11.08.2015 16:21 32,8 C 25 % 1013,4 hPa 0,0 l/m 1,4 km/h (1 Bft) N 8 5 min 0,000 mm 2,0 UV-I 813 W/m 10,2 C 32,8 C 4,0 km/h (1 Bft) 0,00 %
11.08.2015 16:26 32,8 C 24 % 1013,6 hPa 0,0 l/m 0,0 km/h (0 Bft) NO 52 5 min 0,000 mm 1,0 UV-I 757 W/m 9,5 C 32,8 C 0,0 km/h (0 Bft) 0,00 %
11.08.2015 16:31 32,9 C 23 % 1013,6 hPa 0,0 l/m 0,0 km/h (0 Bft) NO 39 5 min 0,000 mm 1,0 UV-I 765 W/m 9,0 C 32,9 C 0,0 km/h (0 Bft) 0,00 %
11.08.2015 16:36 33,1 C 25 % 1013,4 hPa 0,0 l/m 0,4 km/h (0 Bft) W-NW 294 5 min 0,000 mm 1,0 UV-I 764 W/m 10,4 C 33,1 C 4,0 km/h (1 Bft) 0,00 %
11.08.2015 16:41 33,5 C 22 % 1013,4 hPa 0,0 l/m 0,0 km/h (0 Bft) N-NO 22 5 min 0,000 mm 1,0 UV-I 727 W/m 8,8 C 33,5 C 0,0 km/h (0 Bft) 0,00 %
11.08.2015 16:46 34,0 C 23 % 1013,3 hPa 0,0 l/m 0,0 km/h (0 Bft) N 353 5 min 0,000 mm 1,0 UV-I 758 W/m 9,9 C 34,0 C 0,0 km/h (0 Bft) 0,00 %
11.08.2015 16:51 34,2 C 22 % 1013,4 hPa 0,0 l/m 0,0 km/h (0 Bft) N-NO 18 5 min 0,000 mm 1,0 UV-I 611 W/m 9,4 C 34,2 C 0,0 km/h (0 Bft) 0,00 %
11.08.2015 16:56 34,2 C 23 % 1013,4 hPa 0,0 l/m 1,4 km/h (1 Bft) N-NW 343 5 min 0,000 mm 1,0 UV-I 768 W/m 10,1 C 34,2 C 4,0 km/h (1 Bft) 0,00 %
11.08.2015 17:01 33,9 C 23 % 1013,3 hPa 0,0 l/m 0,0 km/h (0 Bft) NO 45 5 min 0,000 mm 1,0 UV-I 745 W/m 9,8 C 33,9 C 0,0 km/h (0 Bft) 0,00 %
11.08.2015 17:06 33,4 C 22 % 1013,3 hPa 0,0 l/m 0,0 km/h (0 Bft) NO 53 5 min 0,000 mm 1,0 UV-I 706 W/m 8,7 C 33,4 C 0,0 km/h (0 Bft) 0,00 %
11.08.2015 17:11 33,4 C 23 % 1013,5 hPa 0,0 l/m 0,0 km/h (0 Bft) NO 42 5 min 0,000 mm 1,0 UV-I 707 W/m 9,4 C 33,4 C 0,0 km/h (0 Bft) 0,00 %
11.08.2015 17:16 33,5 C 24 % 1013,3 hPa 0,0 l/m 0,0 km/h (0 Bft) NO 36 5 min 0,000 mm 1,0 UV-I 706 W/m 10,1 C 33,5 C 0,0 km/h (0 Bft) 0,00 %
11.08.2015 17:21 33,6 C 23 % 1013,4 hPa 0,0 l/m 0,0 km/h (0 Bft) NW 322 5 min 0,000 mm 1,0 UV-I 693 W/m 9,6 C 33,6 C 0,0 km/h (0 Bft) 0,00 %
11.08.2015 17:26 33,8 C 23 % 1013,5 hPa 0,0 l/m 0,0 km/h (0 Bft) N 351 5 min 0,000 mm 1,0 UV-I 674 W/m 9,7 C 33,8 C 0,0 km/h (0 Bft) 0,00 %
11.08.2015 17:31 33,8 C 23 % 1013,5 hPa 0,0 l/m 0,0 km/h (0 Bft) O-SO 106 5 min 0,000 mm 1,0 UV-I 643 W/m 9,7 C 33,8 C 0,0 km/h (0 Bft) 0,00 %
11.08.2015 17:36 33,6 C 22 % 1013,6 hPa 0,0 l/m 0,4 km/h (0 Bft) S 176 5 min 0,000 mm 1,0 UV-I 652 W/m 8,9 C 33,6 C 4,0 km/h (1 Bft) 0,00 %
11.08.2015 17:41 33,3 C 22 % 1013,5 hPa 0,0 l/m 0,4 km/h (0 Bft) NO 53 5 min 0,000 mm 1,0 UV-I 649 W/m 8,7 C 33,3 C 4,0 km/h (1 Bft) 0,00 %
11.08.2015 17:46 33,0 C 24 % 1013,5 hPa 0,0 l/m 0,0 km/h (0 Bft) N-NO 26 5 min 0,000 mm 1,0 UV-I 637 W/m 9,7 C 33,0 C 0,0 km/h (0 Bft) 0,00 %
11.08.2015 17:51 32,9 C 23 % 1013,5 hPa 0,0 l/m 0,0 km/h (0 Bft) O 79 5 min 0,000 mm 1,0 UV-I 631 W/m 9,0 C 32,9 C 0,0 km/h (0 Bft) 0,00 %
11.08.2015 17:56 33,0 C 23 % 1013,5 hPa 0,0 l/m 0,0 km/h (0 Bft) N 1 5 min 0,000 mm 1,0 UV-I 621 W/m 9,1 C 33,0 C 0,0 km/h (0 Bft) 0,00 %
11.08.2015 18:01 33,0 C 24 % 1013,5 hPa 0,0 l/m 0,0 km/h (0 Bft) N 0 5 min 0,000 mm 1,0 UV-I 607 W/m 9,7 C 33,0 C 0,0 km/h (0 Bft) 0,00 %
11.08.2015 18:06 33,0 C 23 % 1013,4 hPa 0,0 l/m 0,0 km/h (0 Bft) N-NO 21 5 min 0,000 mm 1,0 UV-I 583 W/m 9,1 C 33,0 C 0,0 km/h (0 Bft) 0,00 %
11.08.2015 18:11 33,1 C 23 % 1013,5 hPa 0,0 l/m 0,0 km/h (0 Bft) NO 40 5 min 0,000 mm 1,0 UV-I 559 W/m 9,2 C 33,1 C 0,0 km/h (0 Bft) 0,00 %
11.08.2015 18:16 32,9 C 24 % 1013,4 hPa 0,0 l/m 0,4 km/h (0 Bft) NO 46 5 min 0,000 mm 1,0 UV-I 529 W/m 9,6 C 32,9 C 4,0 km/h (1 Bft) 0,00 %
11.08.2015 18:21 32,7 C 24 % 1013,5 hPa 0,0 l/m 0,0 km/h (0 Bft) N 354 5 min 0,000 mm 1,0 UV-I 495 W/m 9,5 C 32,7 C 0,0 km/h (0 Bft) 0,00 %
11.08.2015 18:26 32,6 C 25 % 1013,6 hPa 0,0 l/m 0,0 km/h (0 Bft) N-NO 27 5 min 0,000 mm 1,0 UV-I 496 W/m 10,0 C 32,6 C 0,0 km/h (0 Bft) 0,00 %
11.08.2015 18:31 32,5 C 24 % 1013,2 hPa 0,0 l/m 0,0 km/h (0 Bft) N-NO 31 5 min 0,000 mm 1,0 UV-I 475 W/m 9,3 C 32,5 C 0,0 km/h (0 Bft) 0,00 %
11.08.2015 18:36 32,5 C 23 % 1013,6 hPa 0,0 l/m 0,0 km/h (0 Bft) N-NO 25 5 min 0,000 mm 1,0 UV-I 456 W/m 8,7 C 32,5 C 0,0 km/h (0 Bft) 0,00 %
11.08.2015 18:41 32,4 C 25 % 1013,5 hPa 0,0 l/m 0,0 km/h (0 Bft) NO 46 5 min 0,000 mm 1,0 UV-I 445 W/m 9,8 C 32,4 C 0,0 km/h (0 Bft) 0,00 %
11.08.2015 18:46 32,3 C 24 % 1013,5 hPa 0,0 l/m 0,0 km/h (0 Bft) N 357 5 min 0,000 mm 1,0 UV-I 411 W/m 9,1 C 32,3 C 0,0 km/h (0 Bft) 0,00 %
11.08.2015 18:51 32,2 C 24 % 1013,6 hPa 0,0 l/m 0,0 km/h (0 Bft) N-NO 24 5 min 0,000 mm 1,0 UV-I 380 W/m 9,0 C 32,2 C 0,0 km/h (0 Bft) 0,00 %
11.08.2015 18:56 32,0 C 22 % 1013,5 hPa 0,0 l/m 0,0 km/h (0 Bft) NO 43 5 min 0,000 mm 1,0 UV-I 374 W/m 7,6 C 32,0 C 0,0 km/h (0 Bft) 0,00 %
11.08.2015 19:01 31,8 C 21 % 1013,6 hPa 0,0 l/m 0,0 km/h (0 Bft) O-NO 63 5 min 0,000 mm 1,0 UV-I 367 W/m 6,8 C 31,8 C 0,0 km/h (0 Bft) 0,00 %
11.08.2015 19:06 31,7 C 21 % 1013,6 hPa 0,0 l/m 0,0 km/h (0 Bft) NO 46 5 min 0,000 mm 0,0 UV-I 342 W/m 6,7 C 31,7 C 0,0 km/h (0 Bft) 0,00 %
11.08.2015 19:11 31,7 C 21 % 1013,7 hPa 0,0 l/m 0,0 km/h (0 Bft) NO 45 5 min 0,000 mm 0,0 UV-I 293 W/m 6,7 C 31,7 C 0,0 km/h (0 Bft) 0,00 %
11.08.2015 19:16 31,8 C 22 % 1013,7 hPa 0,0 l/m 0,0 km/h (0 Bft) NO 46 5 min 0,000 mm 0,0 UV-I 281 W/m 7,4 C 31,8 C 0,0 km/h (0 Bft) 0,00 %
11.08.2015 19:21 31,7 C 21 % 1013,6 hPa 0,0 l/m 0,0 km/h (0 Bft) O-NO 58 5 min 0,000 mm 0,0 UV-I 244 W/m 6,7 C 31,7 C 0,0 km/h (0 Bft) 0,00 %
11.08.2015 19:26 31,6 C 23 % 1013,7 hPa 0,0 l/m 0,0 km/h (0 Bft) NO 55 5 min 0,000 mm 0,0 UV-I 198 W/m 7,9 C 31,6 C 0,0 km/h (0 Bft) 0,00 %
11.08.2015 19:31 31,5 C 22 % 1013,7 hPa 0,0 l/m 0,0 km/h (0 Bft) NO 50 5 min 0,000 mm 0,0 UV-I 134 W/m 7,2 C 31,5 C 0,0 km/h (0 Bft) 0,00 %
11.08.2015 19:36 31,1 C 25 % 1013,8 hPa 0,0 l/m 0,0 km/h (0 Bft) O-NO 63 5 min 0,000 mm 0,0 UV-I 92 W/m 8,7 C 31,1 C 0,0 km/h (0 Bft) 0,00 %
11.08.2015 19:41 30,6 C 25 % 1013,8 hPa 0,0 l/m 0,0 km/h (0 Bft) O-NO 65 5 min 0,000 mm 0,0 UV-I 68 W/m 8,3 C 30,6 C 0,0 km/h (0 Bft) 0,00 %
11.08.2015 19:46 30,1 C 29 % 1013,6 hPa 0,0 l/m 0,0 km/h (0 Bft) NO 52 5 min 0,000 mm 0,0 UV-I 54 W/m 10,1 C 30,1 C 0,0 km/h (0 Bft) 0,00 %
11.08.2015 19:51 29,6 C 30 % 1013,9 hPa 0,0 l/m 0,0 km/h (0 Bft) O-NO 59 5 min 0,000 mm 0,0 UV-I 43 W/m 10,2 C 29,6 C 0,0 km/h (0 Bft) 0,00 %
11.08.2015 19:56 29,0 C 32 % 1014,0 hPa 0,0 l/m 0,0 km/h (0 Bft) NO 52 5 min 0,000 mm 0,0 UV-I 38 W/m 10,6 C 29,0 C 0,0 km/h (0 Bft) 0,00 %
11.08.2015 20:01 28,5 C 34 % 1013,9 hPa 0,0 l/m 0,0 km/h (0 Bft) NO 52 5 min 0,000 mm 0,0 UV-I 32 W/m 11,1 C 28,5 C 0,0 km/h (0 Bft) 0,00 %
11.08.2015 20:06 27,9 C 35 % 1013,8 hPa 0,0 l/m 0,0 km/h (0 Bft) O-NO 57 5 min 0,000 mm 0,0 UV-I 25 W/m 11,0 C 27,9 C 0,0 km/h (0 Bft) 0,00 %
11.08.2015 20:11 27,3 C 34 % 1014,0 hPa 0,0 l/m 0,0 km/h (0 Bft) NO 44 5 min 0,000 mm 0,0 UV-I 18 W/m 10,0 C 27,3 C 0,0 km/h (0 Bft) 0,00 %
11.08.2015 20:16 26,8 C 37 % 1014,0 hPa 0,0 l/m 0,0 km/h (0 Bft) NO 49 0 min 0,000 mm 0,0 UV-I 6 W/m 10,9 C 26,8 C 0,0 km/h (0 Bft) 0,00 %
11.08.2015 20:21 26,3 C 39 % 1013,9 hPa 0,0 l/m 0,0 km/h (0 Bft) O-NO 60 0 min 0,000 mm 0,0 UV-I 0 W/m 11,2 C 26,3 C 0,0 km/h (0 Bft) 0,00 %
11.08.2015 20:26 26,1 C 40 % 1014,2 hPa 0,0 l/m 0,0 km/h (0 Bft) O-NO 60 0 min 0,000 mm 0,0 UV-I 0 W/m 11,4 C 26,1 C 0,0 km/h (0 Bft) 0,00 %
11.08.2015 20:31 25,9 C 41 % 1014,2 hPa 0,0 l/m 0,0 km/h (0 Bft) O-NO 60 0 min 0,000 mm 0,0 UV-I 0 W/m 11,6 C 25,9 C 0,0 km/h (0 Bft) 0,00 %
11.08.2015 20:36 25,4 C 43 % 1014,1 hPa 0,0 l/m 0,0 km/h (0 Bft) NO 48 0 min 0,000 mm 0,0 UV-I 0 W/m 11,9 C 25,4 C 0,0 km/h (0 Bft) 0,00 %
11.08.2015 20:41 24,9 C 43 % 1014,2 hPa 0,0 l/m 0,0 km/h (0 Bft) O-NO 58 0 min 0,000 mm 0,0 UV-I 0 W/m 11,4 C 24,9 C 0,0 km/h (0 Bft) 0,00 %
11.08.2015 20:46 24,5 C 42 % 1014,3 hPa 0,0 l/m 0,0 km/h (0 Bft) O-NO 71 0 min 0,000 mm 0,0 UV-I 0 W/m 10,7 C 24,5 C 0,0 km/h (0 Bft) 0,00 %
11.08.2015 20:51 24,3 C 41 % 1014,3 hPa 0,0 l/m 0,0 km/h (0 Bft) NO 48 0 min 0,000 mm 0,0 UV-I 0 W/m 10,2 C 24,3 C 0,0 km/h (0 Bft) 0,00 %
11.08.2015 20:56 24,1 C 41 % 1014,4 hPa 0,0 l/m 0,0 km/h (0 Bft) O-NO 62 0 min 0,000 mm 0,0 UV-I 0 W/m 10,0 C 24,1 C 0,0 km/h (0 Bft) 0,00 %
11.08.2015 21:01 23,9 C 43 % 1014,4 hPa 0,0 l/m 0,0 km/h (0 Bft) NO 46 0 min 0,000 mm 0,0 UV-I 0 W/m 10,5 C 23,9 C 0,0 km/h (0 Bft) 0,00 %
11.08.2015 21:06 23,8 C 44 % 1014,5 hPa 0,0 l/m 0,0 km/h (0 Bft) NO 49 0 min 0,000 mm 0,0 UV-I 0 W/m 10,8 C 23,8 C 0,0 km/h (0 Bft) 0,00 %
11.08.2015 21:11 23,7 C 45 % 1014,5 hPa 0,0 l/m 0,0 km/h (0 Bft) NO 48 0 min 0,000 mm 0,0 UV-I 0 W/m 11,1 C 23,7 C 0,0 km/h (0 Bft) 0,00 %
11.08.2015 21:16 23,5 C 46 % 1014,6 hPa 0,0 l/m 0,0 km/h (0 Bft) NO 49 0 min 0,000 mm 0,0 UV-I 0 W/m 11,2 C 23,5 C 0,0 km/h (0 Bft) 0,00 %
11.08.2015 21:21 23,3 C 48 % 1014,6 hPa 0,0 l/m 0,0 km/h (0 Bft) O-NO 58 0 min 0,000 mm 0,0 UV-I 0 W/m 11,7 C 23,3 C 0,0 km/h (0 Bft) 0,00 %
11.08.2015 21:26 23,1 C 48 % 1014,6 hPa 0,0 l/m 0,0 km/h (0 Bft) O-NO 58 0 min 0,000 mm 0,0 UV-I 0 W/m 11,5 C 23,1 C 0,0 km/h (0 Bft) 0,00 %
11.08.2015 21:31 22,8 C 45 % 1014,7 hPa 0,0 l/m 0,0 km/h (0 Bft) NO 34 0 min 0,000 mm 0,0 UV-I 0 W/m 10,2 C 22,8 C 0,0 km/h (0 Bft) 0,00 %
11.08.2015 21:36 22,4 C 47 % 1014,7 hPa 0,0 l/m 0,0 km/h (0 Bft) NO 46 0 min 0,000 mm 0,0 UV-I 0 W/m 10,5 C 22,4 C 0,0 km/h (0 Bft) 0,00 %
11.08.2015 21:41 22,3 C 47 % 1014,6 hPa 0,0 l/m 0,0 km/h (0 Bft) NO 56 0 min 0,000 mm 0,0 UV-I 0 W/m 10,4 C 22,3 C 0,0 km/h (0 Bft) 0,00 %
11.08.2015 21:46 22,3 C 45 % 1014,6 hPa 0,0 l/m 0,0 km/h (0 Bft) NO 41 0 min 0,000 mm 0,0 UV-I 0 W/m 9,8 C 22,3 C 0,0 km/h (0 Bft) 0,00 %
11.08.2015 21:51 22,4 C 45 % 1014,9 hPa 0,0 l/m 0,0 km/h (0 Bft) O-NO 71 0 min 0,000 mm 0,0 UV-I 0 W/m 9,9 C 22,4 C 0,0 km/h (0 Bft) 0,00 %
11.08.2015 21:56 22,5 C 47 % 1014,8 hPa 0,0 l/m 0,0 km/h (0 Bft) N-NO 27 0 min 0,000 mm 0,0 UV-I 0 W/m 10,6 C 22,5 C 0,0 km/h (0 Bft) 0,00 %
11.08.2015 22:01 22,6 C 47 % 1014,9 hPa 0,0 l/m 0,0 km/h (0 Bft) NO 56 0 min 0,000 mm 0,0 UV-I 0 W/m 10,7 C 22,6 C 0,0 km/h (0 Bft) 0,00 %
11.08.2015 22:06 22,4 C 49 % 1014,7 hPa 0,0 l/m 0,0 km/h (0 Bft) O 90 0 min 0,000 mm 0,0 UV-I 0 W/m 11,2 C 22,4 C 0,0 km/h (0 Bft) 0,00 %
11.08.2015 22:11 22,2 C 51 % 1015,0 hPa 0,0 l/m 0,0 km/h (0 Bft) NO 44 0 min 0,000 mm 0,0 UV-I 0 W/m 11,6 C 22,2 C 0,0 km/h (0 Bft) 0,00 %
11.08.2015 22:16 22,1 C 52 % 1015,0 hPa 0,0 l/m 0,0 km/h (0 Bft) NO 50 0 min 0,000 mm 0,0 UV-I 0 W/m 11,8 C 22,1 C 0,0 km/h (0 Bft) 0,00 %
11.08.2015 22:21 22,0 C 52 % 1015,0 hPa 0,0 l/m 0,0 km/h (0 Bft) NO 41 0 min 0,000 mm 0,0 UV-I 0 W/m 11,7 C 22,0 C 0,0 km/h (0 Bft) 0,00 %
11.08.2015 22:26 21,8 C 52 % 1015,3 hPa 0,0 l/m 0,0 km/h (0 Bft) NO 41 0 min 0,000 mm 0,0 UV-I 0 W/m 11,5 C 21,8 C 0,0 km/h (0 Bft) 0,00 %
11.08.2015 22:31 21,7 C 53 % 1015,3 hPa 0,0 l/m 0,0 km/h (0 Bft) NO 44 0 min 0,000 mm 0,0 UV-I 0 W/m 11,7 C 21,7 C 0,0 km/h (0 Bft) 0,00 %
11.08.2015 22:36 21,4 C 52 % 1015,2 hPa 0,0 l/m 0,0 km/h (0 Bft) NO 46 0 min 0,000 mm 0,0 UV-I 0 W/m 11,1 C 21,4 C 0,0 km/h (0 Bft) 0,00 %
11.08.2015 22:41 21,2 C 54 % 1015,4 hPa 0,0 l/m 0,0 km/h (0 Bft) NO 47 0 min 0,000 mm 0,0 UV-I 0 W/m 11,5 C 21,2 C 0,0 km/h (0 Bft) 0,00 %
11.08.2015 22:47 21,0 C 56 % 1015,5 hPa 0,0 l/m 0,0 km/h (0 Bft) NO 40 0 min 0,000 mm 0,0 UV-I 0 W/m 11,9 C 21,0 C 0,0 km/h (0 Bft) 0,00 %
11.08.2015 22:52 20,9 C 56 % 1015,4 hPa 0,0 l/m 0,0 km/h (0 Bft) NO 47 0 min 0,000 mm 0,0 UV-I 0 W/m 11,8 C 20,9 C 0,0 km/h (0 Bft) 0,00 %
11.08.2015 22:57 20,8 C 56 % 1015,4 hPa 0,0 l/m 0,0 km/h (0 Bft) NO 47 0 min 0,000 mm 0,0 UV-I 0 W/m 11,7 C 20,8 C 0,0 km/h (0 Bft) 0,00 %
11.08.2015 23:02 20,5 C 59 % 1015,6 hPa 0,0 l/m 0,0 km/h (0 Bft) N-NO 23 0 min 0,000 mm 0,0 UV-I 0 W/m 12,2 C 20,5 C 0,0 km/h (0 Bft) 0,00 %
11.08.2015 23:07 20,4 C 59 % 1015,5 hPa 0,0 l/m 0,0 km/h (0 Bft) NO 48 0 min 0,000 mm 0,0 UV-I 0 W/m 12,1 C 20,4 C 0,0 km/h (0 Bft) 0,00 %
11.08.2015 23:12 20,3 C 60 % 1015,8 hPa 0,0 l/m 0,0 km/h (0 Bft) NO 42 0 min 0,000 mm 0,0 UV-I 0 W/m 12,3 C 20,3 C 0,0 km/h (0 Bft) 0,00 %
11.08.2015 23:17 20,1 C 60 % 1015,8 hPa 0,0 l/m 0,0 km/h (0 Bft) NO 47 0 min 0,000 mm 0,0 UV-I 0 W/m 12,1 C 20,1 C 0,0 km/h (0 Bft) 0,00 %
11.08.2015 23:22 20,0 C 60 % 1015,9 hPa 0,0 l/m 0,0 km/h (0 Bft) N-NO 28 0 min 0,000 mm 0,0 UV-I 0 W/m 12,0 C 20,0 C 0,0 km/h (0 Bft) 0,00 %
11.08.2015 23:27 20,0 C 60 % 1015,8 hPa 0,0 l/m 0,0 km/h (0 Bft) NO 44 0 min 0,000 mm 0,0 UV-I 0 W/m 12,0 C 20,0 C 0,0 km/h (0 Bft) 0,00 %
11.08.2015 23:32 20,1 C 60 % 1015,8 hPa 0,0 l/m 0,0 km/h (0 Bft) NO 45 0 min 0,000 mm 0,0 UV-I 0 W/m 12,1 C 20,1 C 0,0 km/h (0 Bft) 0,00 %
11.08.2015 23:37 20,1 C 60 % 1015,9 hPa 0,0 l/m 0,0 km/h (0 Bft) NO 53 0 min 0,000 mm 0,0 UV-I 0 W/m 12,1 C 20,1 C 0,0 km/h (0 Bft) 0,00 %
11.08.2015 23:42 20,1 C 61 % 1015,9 hPa 0,0 l/m 0,0 km/h (0 Bft) NO 35 0 min 0,000 mm 0,0 UV-I 0 W/m 12,3 C 20,1 C 0,0 km/h (0 Bft) 0,00 %
11.08.2015 23:47 20,1 C 60 % 1016,1 hPa 0,0 l/m 0,0 km/h (0 Bft) NO 37 0 min 0,000 mm 0,0 UV-I 0 W/m 12,1 C 20,1 C 0,0 km/h (0 Bft) 0,00 %
11.08.2015 23:52 20,1 C 61 % 1015,9 hPa 0,0 l/m 0,0 km/h (0 Bft) NO 46 0 min 0,000 mm 0,0 UV-I 0 W/m 12,3 C 20,1 C 0,0 km/h (0 Bft) 0,00 %
11.08.2015 23:57 20,1 C 61 % 1015,9 hPa 0,0 l/m 0,0 km/h (0 Bft) NO 42 0 min 0,000 mm 0,0 UV-I 0 W/m 12,3 C 20,1 C 0,0 km/h (0 Bft) 0,00 %
_ Min-Zeit 04:50 19:01 02:15 - 00:05 - - - - - - 19:06 04:50 00:05 00:00
Minimum _ 15,1 C 21 % 1012,3 hPa - 0,0 km/h (0 Bft) - - - - - - 6,7 C 15,1 C 0,0 km/h (0 Bft) 0,00 %
_ Max-Zeit 15:51 05:00 23:47 00:00 14:11 - - 07:01 00:00 11:56 13:36 10:51 15:51 01:35 00:00
Maximum _ 34,2 C 73 % 1016,1 hPa 0,0 l/m 7,9 km/h
O-SO (2 Bft)
- - 5 min 0,000 mm 4,0 UV-I 1009 W/m 16,0 C 34,2 C 11,9 km/h
O (2 Bft)
0,00 %
Durchschnitt _ 25,5 C 44 % 1014,1 hPa #0,0 l/m 0,5 km/h (0 Bft) O - #13:10 h #0,000 mm 2,1 UV-I 529 W/m 11,3 C 25,5 C 1,1 km/h (0 Bft) 0,00 %